San Vicente la Barquera

latitud = 43° 23' 40''N | longitud = 004° 23' 27''W
40 metros sobre el nivel del mar | datos mensuales

Fecha, hora, temperatura, viento dirección y velocidad, humedad y presión.

  • 21-06-2018 22:00:00 | 19.00°C | Nordeste |6.00 km/h | 91.00% | 1018.10 hPa
  • 21-06-2018 21:00:00 | 19.10°C | Nordeste |8.00 km/h | 91.00% | 1018.00 hPa
  • 21-06-2018 20:00:00 | 19.80°C | Oeste |8.00 km/h | 90.00% | 1018.00 hPa
  • 21-06-2018 19:00:00 | 20.20°C | Noroeste |14.00 km/h | 88.00% | 1017.40 hPa
  • 21-06-2018 18:00:00 | 20.70°C | Noroeste |12.00 km/h | 88.00% | 1017.30 hPa
  • 21-06-2018 17:00:00 | 21.40°C | Noroeste |12.00 km/h | 87.00% | 1017.40 hPa
  • 21-06-2018 16:00:00 | 21.00°C | Noroeste |11.00 km/h | 87.00% | 1017.40 hPa
  • 21-06-2018 15:00:00 | 20.90°C | Oeste |9.00 km/h | 88.00% | 1017.40 hPa
  • 21-06-2018 14:00:00 | 20.60°C | Noroeste |10.00 km/h | 88.00% | 1017.50 hPa
  • 21-06-2018 13:00:00 | 20.40°C | Noroeste |12.00 km/h | 88.00% | 1017.40 hPa
  • 21-06-2018 12:00:00 | 20.60°C | Oeste |14.00 km/h | 88.00% | 1017.00 hPa
  • 21-06-2018 11:00:00 | 20.00°C | Oeste |11.00 km/h | 90.00% | 1016.80 hPa
  • 21-06-2018 10:00:00 | 19.40°C | Oeste |14.00 km/h | 90.00% | 1016.50 hPa
  • 21-06-2018 09:00:00 | 19.50°C | Noroeste |8.00 km/h | 89.00% | 1016.10 hPa
  • 21-06-2018 08:00:00 | 0.00°C | Calma |0.00 km/h | 0.00% | 0.00 hPa
  • 21-06-2018 07:00:00 | 19.10°C | Sudoeste |3.00 km/h | 89.00% | 1015.80 hPa
  • 21-06-2018 06:00:00 | 19.20°C | Oeste |4.00 km/h | 89.00% | 1015.90 hPa
  • 21-06-2018 05:00:00 | 19.30°C | Oeste |4.00 km/h | 89.00% | 1016.10 hPa
  • 21-06-2018 04:00:00 | 19.10°C | Sudoeste |5.00 km/h | 89.00% | 1016.10 hPa
  • 21-06-2018 03:00:00 | 19.30°C | Sudoeste |4.00 km/h | 89.00% | 1016.30 hPa
  • 21-06-2018 02:00:00 | 19.20°C | Oeste |3.00 km/h | 89.00% | 1016.50 hPa
  • 21-06-2018 01:00:00 | 19.10°C | Oeste |7.00 km/h | 90.00% | 1016.40 hPa
  • 21-06-2018 00:00:00 | 19.20°C | Oeste |8.00 km/h | 90.00% | 1016.40 hPa
  • 20-06-2018 23:00:00 | 19.30°C | Oeste |6.00 km/h | 90.00% | 1016.10 hPa